Center, South Dakota
Current Conditions -  °F | °C
As of 11:15 AM on Sunday 23 Nov 2014 (Local Time) from KMDS Reporting Station
Clear Clear  
Wind Chill: 29°   Ceiling: Unl
Heat Index: 37°   Visibility: 10mi
Dew Point: 37°   Wind: 15mph
Humidity: 100%   Direction: 300°WNW
Pressure: 29.55"   Gusts: NA
Location:  43.7599°N, 97.3683°W
Report Text: KMDS 231715Z AUTO 30013KT 10SM CLR 03/03 A2955 RMK AO2
Loading
Personal Weather Stations






























Interactive Weather Map New forecast layout! Learn more

10-Day Weather Forecast

Advertisements
Track Severe Weather on mobile